createdAt,value
2018-07-04T00:00:12.072Z,53.90
2018-07-04T00:02:52.485Z,53.89
2018-07-04T00:05:32.947Z,54.08
2018-07-04T00:08:12.796Z,53.73
2018-07-04T00:10:53.049Z,54.12
2018-07-04T00:13:32.826Z,54.79
2018-07-04T00:16:12.566Z,55.81
2018-07-04T00:18:53.010Z,56.28
2018-07-04T00:21:32.739Z,55.71
2018-07-04T00:24:12.496Z,56.09
2018-07-04T00:26:52.946Z,56.29
2018-07-04T00:29:33.366Z,56.14
2018-07-04T00:32:13.825Z,56.36
2018-07-04T00:34:53.678Z,55.39
2018-07-04T00:37:33.768Z,55.52
2018-07-04T00:40:13.685Z,55.50
2018-07-04T00:42:53.398Z,55.79
2018-07-04T00:45:33.907Z,55.75
2018-07-04T00:48:13.658Z,55.80
2018-07-04T00:50:53.416Z,55.63
2018-07-04T00:53:32.933Z,55.16
2018-07-04T00:56:12.461Z,55.00
2018-07-04T00:58:53.074Z,55.44
2018-07-04T01:01:33.011Z,55.55
2018-07-04T01:04:12.877Z,55.07
2018-07-04T01:06:52.647Z,55.75
2018-07-04T01:09:32.172Z,55.13
2018-07-04T01:12:11.937Z,55.37
2018-07-04T01:14:51.663Z,55.51
2018-07-04T01:17:31.533Z,55.92
2018-07-04T01:20:11.215Z,55.84
2018-07-04T01:22:50.982Z,56.20
2018-07-04T01:25:30.725Z,56.03
2018-07-04T01:28:10.629Z,56.28
2018-07-04T01:30:51.355Z,56.36
2018-07-04T01:33:31.101Z,56.29
2018-07-04T01:36:11.047Z,55.67
2018-07-04T01:38:50.960Z,55.98
2018-07-04T01:41:30.665Z,55.94
2018-07-04T01:44:10.554Z,56.60
2018-07-04T01:46:50.246Z,56.96
2018-07-04T01:49:29.897Z,56.56
2018-07-04T01:52:09.729Z,57.40
2018-07-04T01:54:49.876Z,57.63
2018-07-04T01:57:29.534Z,57.83
2018-07-04T02:00:10.331Z,57.42
2018-07-04T02:02:50.160Z,57.96
2018-07-04T02:05:29.897Z,57.71
2018-07-04T02:08:10.333Z,58.30
2018-07-04T02:10:50.232Z,58.33
2018-07-04T02:13:29.933Z,58.26
2018-07-04T02:16:09.639Z,58.25
2018-07-04T02:18:49.609Z,58.52
2018-07-04T02:21:29.285Z,58.34
2018-07-04T02:24:10.288Z,58.41
2018-07-04T02:26:50.185Z,58.53
2018-07-04T02:29:30.070Z,58.36
2018-07-04T02:32:10.504Z,58.92
2018-07-04T02:34:50.642Z,59.02
2018-07-04T02:37:30.190Z,58.80
2018-07-04T02:40:09.720Z,59.10
2018-07-04T02:42:49.577Z,59.13
2018-07-04T02:45:29.443Z,59.06
2018-07-04T02:48:09.183Z,58.91
2018-07-04T02:50:49.617Z,58.92
2018-07-04T02:53:29.448Z,59.36
2018-07-04T02:56:09.253Z,59.52
2018-07-04T02:58:49.128Z,59.42
2018-07-04T03:01:30.383Z,59.43
2018-07-04T03:04:10.436Z,59.83
2018-07-04T03:06:50.238Z,59.66
2018-07-04T03:09:29.972Z,59.66
2018-07-04T03:12:09.830Z,60.19
2018-07-04T03:14:50.144Z,60.65
2018-07-04T03:17:30.104Z,59.94
2018-07-04T03:20:09.658Z,60.32
2018-07-04T03:22:49.614Z,60.21
2018-07-04T03:25:29.429Z,60.51
2018-07-04T03:28:09.453Z,60.50
2018-07-04T03:30:49.619Z,60.62
2018-07-04T03:33:29.433Z,60.66
2018-07-04T03:36:10.586Z,60.08
2018-07-04T03:38:50.636Z,60.25
2018-07-04T03:41:30.589Z,60.41
2018-07-04T03:44:10.281Z,60.62
2018-07-04T03:46:49.900Z,60.17
2018-07-04T03:49:30.285Z,60.65
2018-07-04T03:52:10.336Z,60.40
2018-07-04T03:54:50.389Z,60.81
2018-07-04T03:57:30.698Z,60.90
2018-07-04T04:00:10.481Z,60.79
2018-07-04T04:02:50.243Z,60.65
2018-07-04T04:05:30.054Z,60.31
2018-07-04T04:08:09.786Z,60.24
2018-07-04T04:10:49.509Z,60.38
2018-07-04T04:13:29.332Z,60.39
2018-07-04T04:16:09.035Z,60.11
2018-07-04T04:18:48.761Z,60.35
2018-07-04T04:21:28.574Z,60.31
2018-07-04T04:24:08.452Z,60.16
2018-07-04T04:26:48.274Z,60.27
2018-07-04T04:29:28.211Z,59.88
2018-07-04T04:32:08.280Z,59.41
2018-07-04T04:34:48.874Z,59.48
2018-07-04T04:37:29.331Z,59.80
2018-07-04T04:40:09.725Z,59.26
2018-07-04T04:42:49.426Z,59.12
2018-07-04T04:45:29.121Z,59.30
2018-07-04T04:48:08.997Z,58.86
2018-07-04T04:50:48.579Z,59.25
2018-07-04T04:53:28.270Z,59.61
2018-07-04T04:56:08.224Z,59.86
2018-07-04T04:58:47.922Z,59.38
2018-07-04T05:01:27.847Z,59.96
2018-07-04T05:04:09.209Z,60.24
2018-07-04T05:06:49.649Z,58.72
2018-07-04T05:09:29.451Z,58.32
2018-07-04T05:12:09.401Z,58.52
2018-07-04T05:14:49.243Z,59.19
2018-07-04T05:17:29.141Z,59.24
2018-07-04T05:20:08.839Z,59.87
2018-07-04T05:22:48.555Z,60.18
2018-07-04T05:25:29.001Z,60.00
2018-07-04T05:28:08.854Z,60.08
2018-07-04T05:30:48.462Z,60.22
2018-07-04T05:33:28.153Z,59.80
2018-07-04T05:36:08.215Z,59.44
2018-07-04T05:38:48.055Z,59.09
2018-07-04T05:41:28.077Z,59.01
2018-07-04T05:44:07.711Z,59.13
2018-07-04T05:46:47.613Z,59.49
2018-07-04T05:49:27.263Z,59.14
2018-07-04T05:52:07.043Z,60.15
2018-07-04T05:54:46.680Z,59.66
2018-07-04T05:57:26.627Z,58.88
2018-07-04T06:00:06.304Z,58.54
2018-07-04T06:02:46.081Z,57.99
2018-07-04T06:05:25.890Z,57.49
2018-07-04T06:08:05.646Z,56.50
2018-07-04T06:10:45.384Z,56.13
2018-07-04T06:13:25.002Z,56.21
2018-07-04T06:16:04.704Z,55.75
2018-07-04T06:18:45.393Z,55.36
2018-07-04T06:21:25.146Z,55.54
2018-07-04T06:24:04.911Z,55.06
2018-07-04T06:26:45.038Z,54.77
2018-07-04T06:29:25.021Z,54.78
2018-07-04T06:32:05.008Z,54.90
2018-07-04T06:34:44.645Z,55.35
2018-07-04T06:37:25.602Z,54.95
2018-07-04T06:39:52.930Z,55.10
2018-07-04T06:42:20.290Z,55.10
2018-07-04T06:44:48.068Z,53.95
2018-07-04T06:47:15.440Z,54.17
2018-07-04T06:49:43.479Z,54.06
2018-07-04T06:52:11.008Z,54.08
2018-07-04T06:54:38.649Z,54.98
2018-07-04T06:57:06.022Z,55.20
2018-07-04T06:59:33.982Z,54.83
2018-07-04T07:02:12.190Z,54.64
2018-07-04T07:04:53.953Z,53.58
2018-07-04T07:07:34.291Z,53.80
2018-07-04T07:10:14.025Z,53.28
2018-07-04T07:12:53.834Z,51.97
2018-07-04T07:15:34.838Z,52.95
2018-07-04T07:18:15.356Z,53.65
2018-07-04T07:20:55.047Z,53.57
2018-07-04T07:23:34.773Z,52.65
2018-07-04T07:26:14.737Z,51.39
2018-07-04T07:28:54.855Z,50.67
2018-07-04T07:31:34.589Z,50.60
2018-07-04T07:34:14.363Z,50.89
2018-07-04T07:36:53.939Z,52.11
2018-07-04T07:39:33.900Z,50.19
2018-07-04T07:42:14.317Z,49.56
2018-07-04T07:44:53.977Z,50.20
2018-07-04T07:47:33.730Z,49.23
2018-07-04T07:50:13.973Z,47.94
2018-07-04T07:52:54.203Z,47.11
2018-07-04T07:55:33.888Z,46.14
2018-07-04T07:58:14.007Z,44.62
2018-07-04T08:00:54.102Z,46.73
2018-07-04T08:03:34.456Z,44.66
2018-07-04T08:06:14.198Z,42.90
2018-07-04T08:08:53.932Z,44.16
2018-07-04T08:11:34.139Z,43.51
2018-07-04T08:14:14.539Z,43.75
2018-07-04T08:16:54.361Z,42.77
2018-07-04T08:19:34.022Z,41.79
2018-07-04T08:22:13.674Z,43.25
2018-07-04T08:24:53.435Z,43.58
2018-07-04T08:27:33.095Z,44.03
2018-07-04T08:30:13.312Z,44.15
2018-07-04T08:32:53.029Z,45.05
2018-07-04T08:35:33.304Z,44.62
2018-07-04T08:38:13.412Z,45.04
2018-07-04T08:40:53.085Z,45.35
2018-07-04T08:43:32.954Z,45.03
2018-07-04T08:46:12.697Z,44.65
2018-07-04T08:48:52.391Z,45.54
2018-07-04T08:51:33.239Z,45.84
2018-07-04T08:54:12.970Z,44.25
2018-07-04T08:56:53.397Z,44.28
2018-07-04T08:59:33.040Z,44.76
2018-07-04T09:02:12.748Z,44.28
2018-07-04T09:04:52.455Z,41.60
2018-07-04T09:07:32.124Z,40.02
2018-07-04T09:10:12.017Z,41.42
2018-07-04T09:12:51.875Z,41.84
2018-07-04T09:15:31.551Z,41.28
2018-07-04T09:18:11.697Z,41.79
2018-07-04T09:20:52.216Z,41.62
2018-07-04T09:23:31.965Z,40.09
2018-07-04T09:26:12.175Z,41.44
2018-07-04T09:28:52.839Z,38.90
2018-07-04T09:31:32.681Z,38.85
2018-07-04T09:34:12.418Z,38.43
2018-07-04T09:36:52.071Z,37.14
2018-07-04T09:39:31.816Z,38.01
2018-07-04T09:42:11.398Z,36.61
2018-07-04T09:44:51.129Z,38.11
2018-07-04T09:47:30.898Z,38.64
2018-07-04T09:50:10.690Z,40.55
2018-07-04T09:57:49.838Z,43.78
2018-07-04T10:00:30.484Z,44.01
2018-07-04T10:03:11.165Z,45.19
2018-07-04T10:05:51.118Z,47.61
2018-07-04T10:08:31.007Z,55.07
2018-07-04T10:11:10.560Z,56.33
2018-07-04T10:13:50.470Z,55.99
2018-07-04T10:16:30.173Z,57.95
2018-07-04T10:19:09.974Z,55.96
2018-07-04T10:21:49.707Z,56.66
2018-07-04T10:24:29.468Z,53.40
2018-07-04T10:27:09.386Z,54.27
2018-07-04T10:29:49.075Z,53.44
2018-07-04T10:32:28.836Z,51.92
2018-07-04T10:35:08.659Z,52.75
2018-07-04T10:37:48.408Z,48.81
2018-07-04T10:40:28.273Z,49.42
2018-07-04T10:43:08.400Z,51.44
2018-07-04T10:45:48.053Z,53.27
2018-07-04T10:48:28.648Z,54.82
2018-07-04T10:51:08.769Z,54.28
2018-07-04T10:53:48.382Z,54.07
2018-07-04T10:56:28.226Z,51.87
2018-07-04T10:59:07.918Z,50.23
2018-07-04T11:01:47.550Z,48.82
2018-07-04T11:04:27.770Z,50.08
2018-07-04T11:07:07.628Z,49.13
2018-07-04T11:09:47.489Z,51.59
2018-07-04T11:12:27.054Z,52.98
2018-07-04T11:15:06.755Z,53.27
2018-07-04T11:17:46.417Z,53.51
2018-07-04T11:20:26.086Z,56.70
2018-07-04T11:23:05.788Z,54.37
2018-07-04T11:25:45.505Z,55.16
2018-07-04T11:28:25.384Z,55.50
2018-07-04T11:31:05.681Z,55.07
2018-07-04T11:33:45.573Z,54.48
2018-07-04T11:36:25.281Z,54.04
2018-07-04T11:39:04.837Z,55.17
2018-07-04T11:41:44.598Z,54.05
2018-07-04T11:44:24.292Z,53.47
2018-07-04T11:46:51.667Z,52.17
2018-07-04T11:49:18.999Z,51.12
2018-07-04T11:51:46.331Z,50.53
2018-07-04T11:54:13.683Z,50.20
2018-07-04T11:56:41.142Z,50.03
2018-07-04T11:59:08.490Z,48.34
2018-07-04T12:01:35.812Z,48.33
2018-07-04T12:04:15.536Z,49.52
2018-07-04T12:06:55.128Z,49.52
2018-07-04T12:09:22.445Z,48.56
2018-07-04T12:11:49.786Z,47.91
2018-07-04T12:14:17.086Z,46.34
2018-07-04T12:16:44.461Z,45.57
2018-07-04T12:19:11.883Z,45.60
2018-07-04T12:21:39.235Z,45.47
2018-07-04T12:24:06.542Z,46.40
2018-07-04T12:26:33.883Z,44.98
2018-07-04T12:29:01.216Z,45.09
2018-07-04T12:31:28.597Z,45.63
2018-07-04T12:33:55.923Z,45.68
2018-07-04T12:36:23.296Z,47.19
2018-07-04T12:38:50.673Z,46.75
2018-07-04T12:41:18.146Z,44.86
2018-07-04T12:43:45.477Z,44.27
2018-07-04T12:46:12.793Z,42.46
2018-07-04T12:48:40.182Z,43.75
2018-07-04T12:51:07.842Z,43.68
2018-07-04T12:53:35.283Z,42.94
2018-07-04T12:56:15.063Z,39.79
2018-07-04T12:58:54.820Z,36.41
2018-07-04T13:01:34.486Z,34.77
2018-07-04T13:04:14.841Z,34.86
2018-07-04T13:06:54.663Z,35.76
2018-07-04T13:09:34.424Z,36.15
2018-07-04T13:12:14.302Z,35.08
2018-07-04T13:14:53.996Z,34.15
2018-07-04T13:17:34.113Z,34.27
2018-07-04T13:20:13.855Z,32.19
2018-07-04T13:22:53.550Z,33.53
2018-07-04T13:25:33.410Z,32.05
2018-07-04T13:28:13.149Z,31.18
2018-07-04T13:30:52.644Z,31.33
2018-07-04T13:33:32.366Z,31.63
2018-07-04T13:36:12.119Z,31.42
2018-07-04T13:38:51.922Z,31.95
2018-07-04T13:41:32.795Z,31.79
2018-07-04T13:44:13.043Z,31.75
2018-07-04T13:46:52.876Z,32.76
2018-07-04T13:49:32.747Z,32.11
2018-07-04T13:52:12.641Z,32.81
2018-07-04T13:54:52.376Z,32.32
2018-07-04T13:57:32.152Z,31.45
2018-07-04T14:00:13.096Z,31.63
2018-07-04T14:02:52.773Z,31.59
2018-07-04T14:05:32.530Z,32.02
2018-07-04T14:08:12.480Z,33.76
2018-07-04T14:10:52.737Z,32.98
2018-07-04T14:13:32.686Z,34.37
2018-07-04T14:16:12.458Z,34.22
2018-07-04T14:18:52.423Z,34.70
2018-07-04T14:21:32.091Z,34.67
2018-07-04T14:24:12.793Z,35.26
2018-07-04T14:26:52.641Z,34.10
2018-07-04T14:29:32.431Z,34.37
2018-07-04T14:32:12.776Z,34.21
2018-07-04T14:34:52.551Z,35.28
2018-07-04T14:37:32.276Z,35.20
2018-07-04T14:40:12.142Z,35.48
2018-07-04T14:42:52.035Z,35.82
2018-07-04T14:45:33.664Z,36.89
2018-07-04T14:48:13.578Z,37.70
2018-07-04T14:50:53.847Z,39.93
2018-07-04T14:53:33.473Z,41.81
2018-07-04T14:56:13.372Z,42.32
2018-07-04T14:58:53.089Z,42.97
2018-07-04T15:01:32.909Z,42.86
2018-07-04T15:04:12.802Z,43.12
2018-07-04T15:06:52.583Z,40.72
2018-07-04T15:09:32.440Z,43.99
2018-07-04T15:12:12.307Z,45.38
2018-07-04T15:14:51.950Z,44.19
2018-07-04T15:17:31.776Z,44.05
2018-07-04T15:20:11.627Z,42.32
2018-07-04T15:22:51.732Z,41.36
2018-07-04T15:25:31.383Z,40.01
2018-07-04T15:28:11.059Z,39.67
2018-07-04T15:30:51.272Z,40.41
2018-07-04T15:33:31.002Z,40.67
2018-07-04T15:36:10.935Z,41.00
2018-07-04T15:38:50.555Z,39.44
2018-07-04T15:41:30.533Z,40.09
2018-07-04T15:44:11.417Z,40.16
2018-07-04T15:46:51.897Z,40.48
2018-07-04T15:49:31.792Z,40.09
2018-07-04T15:52:11.668Z,40.05
2018-07-04T15:54:51.985Z,40.33
2018-07-04T15:57:32.442Z,40.55
2018-07-04T16:00:12.542Z,41.08
2018-07-04T16:02:53.666Z,41.09
2018-07-04T16:05:33.383Z,41.25
2018-07-04T16:08:13.416Z,42.23
2018-07-04T16:10:53.329Z,41.33
2018-07-04T16:13:33.056Z,41.59
2018-07-04T16:16:12.711Z,41.16
2018-07-04T16:18:52.535Z,40.46
2018-07-04T16:21:32.263Z,40.86
2018-07-04T16:24:12.708Z,41.96
2018-07-04T16:26:52.943Z,40.58
2018-07-04T16:29:32.837Z,40.80
2018-07-04T16:32:12.849Z,41.37
2018-07-04T16:34:52.640Z,41.46
2018-07-04T16:37:32.457Z,41.26
2018-07-04T16:40:12.226Z,41.57
2018-07-04T16:42:51.979Z,42.22
2018-07-04T16:45:32.144Z,42.67
2018-07-04T16:48:11.946Z,42.31
2018-07-04T16:50:51.636Z,42.54
2018-07-04T16:53:31.448Z,43.51
2018-07-04T16:56:11.404Z,43.50
2018-07-04T16:58:51.280Z,43.34
2018-07-04T17:01:31.194Z,43.50
2018-07-04T17:04:11.526Z,43.33
2018-07-04T17:06:51.383Z,44.04
2018-07-04T17:09:31.157Z,44.02
2018-07-04T17:12:10.912Z,42.99
2018-07-04T17:14:50.518Z,43.45
2018-07-04T17:17:30.694Z,44.21
2018-07-04T17:20:11.167Z,43.27
2018-07-04T17:22:50.943Z,44.10
2018-07-04T17:25:30.750Z,42.89
2018-07-04T17:28:10.439Z,43.16
2018-07-04T17:30:50.109Z,43.70
2018-07-04T17:33:29.855Z,42.24
2018-07-04T17:36:10.749Z,42.23
2018-07-04T17:38:50.907Z,42.76
2018-07-04T17:41:30.934Z,43.87
2018-07-04T17:44:10.769Z,44.28
2018-07-04T17:46:50.797Z,45.55
2018-07-04T17:49:30.618Z,45.71
2018-07-04T17:52:13.374Z,46.00
2018-07-04T17:54:54.360Z,45.34
2018-07-04T17:57:35.056Z,46.24
2018-07-04T18:00:15.184Z,46.80
2018-07-04T18:02:55.207Z,47.26
2018-07-04T18:05:35.227Z,46.65
2018-07-04T18:08:16.589Z,47.19
2018-07-04T18:10:56.329Z,46.31
2018-07-04T18:13:36.707Z,47.56
2018-07-04T18:16:17.366Z,47.54
2018-07-04T18:18:58.144Z,48.08
2018-07-04T18:21:38.752Z,47.94
2018-07-04T18:24:18.499Z,48.03
2018-07-04T18:26:59.739Z,48.30
2018-07-04T18:29:39.356Z,48.47
2018-07-04T18:32:19.128Z,48.46
2018-07-04T18:34:59.023Z,48.59
2018-07-04T18:37:38.664Z,49.40
2018-07-04T18:40:18.337Z,50.15
2018-07-04T18:42:57.915Z,50.02
2018-07-04T18:45:39.033Z,50.02
2018-07-04T18:48:19.060Z,49.36
2018-07-04T18:50:59.209Z,48.71
2018-07-04T18:53:45.578Z,49.70
2018-07-04T18:56:25.284Z,50.51
2018-07-04T18:59:05.206Z,51.31
2018-07-04T19:01:45.167Z,50.85
2018-07-04T19:04:24.954Z,52.23
2018-07-04T19:07:06.260Z,52.36
2018-07-04T19:09:45.917Z,52.69
2018-07-04T19:12:25.922Z,52.13
2018-07-04T19:15:05.904Z,51.73
2018-07-04T19:17:46.169Z,51.64
2018-07-04T19:20:25.829Z,52.51
2018-07-04T19:23:05.596Z,52.13
2018-07-04T19:25:55.409Z,52.77
2018-07-04T19:28:35.263Z,52.91
2018-07-04T19:31:15.050Z,54.02
2018-07-04T19:33:55.094Z,54.44
2018-07-04T19:36:34.767Z,54.29
2018-07-04T19:39:14.536Z,54.73
2018-07-04T19:41:54.252Z,53.87
2018-07-04T19:44:34.159Z,54.19
2018-07-04T19:47:14.972Z,54.85
2018-07-04T19:49:55.120Z,54.44
2018-07-04T19:52:34.780Z,54.82
2018-07-04T19:55:14.449Z,54.09
2018-07-04T19:57:54.507Z,54.38
2018-07-04T20:00:34.727Z,55.06
2018-07-04T20:03:16.533Z,55.30
2018-07-04T20:05:56.297Z,55.02
2018-07-04T20:08:36.255Z,55.02
2018-07-04T20:11:16.062Z,55.97
2018-07-04T20:16:40.720Z,55.63
2018-07-04T20:19:20.831Z,55.70
2018-07-04T20:22:00.905Z,55.42
2018-07-04T20:24:40.717Z,54.94
2018-07-04T20:27:20.378Z,55.99
2018-07-04T20:30:00.276Z,55.35
2018-07-04T20:32:41.080Z,55.48
2018-07-04T20:35:21.159Z,55.38
2018-07-04T20:38:01.830Z,55.68
2018-07-04T20:40:41.617Z,55.64
2018-07-04T20:43:21.532Z,55.36
2018-07-04T20:46:01.283Z,55.97
2018-07-04T20:48:41.059Z,56.91
2018-07-04T20:51:20.979Z,56.98
2018-07-04T20:54:00.974Z,56.91
2018-07-04T20:56:41.011Z,57.11
2018-07-04T20:59:20.958Z,57.54
2018-07-04T21:02:01.520Z,57.42
2018-07-04T21:04:41.680Z,57.14
2018-07-04T21:07:22.120Z,57.29
2018-07-04T21:10:01.965Z,58.00
2018-07-04T21:12:41.834Z,58.49
2018-07-04T21:15:22.204Z,59.31
2018-07-04T21:18:02.112Z,59.21
2018-07-04T21:20:41.935Z,58.87
2018-07-04T21:23:21.736Z,58.75
2018-07-04T21:26:01.473Z,58.26
2018-07-04T21:28:41.278Z,58.45
2018-07-04T21:31:21.242Z,58.00
2018-07-04T21:34:01.531Z,58.64
2018-07-04T21:36:41.799Z,58.74
2018-07-04T21:39:21.902Z,58.81
2018-07-04T21:42:01.798Z,59.25
2018-07-04T21:44:41.712Z,59.95
2018-07-04T21:47:21.561Z,59.51
2018-07-04T21:50:01.459Z,60.34
2018-07-04T21:52:41.381Z,60.22
2018-07-04T21:55:21.317Z,60.18
2018-07-04T21:58:02.118Z,60.17
2018-07-04T22:00:41.713Z,61.11
2018-07-04T22:03:21.284Z,60.86
2018-07-04T22:06:01.271Z,60.72
2018-07-04T22:08:41.034Z,61.25
2018-07-04T22:11:20.814Z,60.96
2018-07-04T22:14:01.327Z,61.32
2018-07-04T22:16:41.268Z,61.29
2018-07-04T22:19:20.902Z,60.79
2018-07-04T22:22:03.738Z,60.25
2018-07-04T22:24:43.616Z,60.22
2018-07-04T22:27:23.447Z,60.17
2018-07-04T22:30:07.449Z,59.53
2018-07-04T22:32:47.092Z,60.01
2018-07-04T22:35:26.762Z,60.80
2018-07-04T22:38:06.924Z,60.59
2018-07-04T22:40:47.112Z,61.22
2018-07-04T22:43:26.603Z,61.02
2018-07-04T22:46:06.987Z,60.95
2018-07-04T22:48:46.856Z,62.13
2018-07-04T22:51:26.954Z,61.70
2018-07-04T22:54:07.092Z,61.45
2018-07-04T22:56:46.874Z,61.43
2018-07-04T22:59:26.999Z,61.20
2018-07-04T23:02:07.825Z,61.19
2018-07-04T23:04:47.731Z,61.40
2018-07-04T23:07:28.441Z,61.56
2018-07-04T23:10:08.182Z,61.79
2018-07-04T23:12:48.640Z,61.77
2018-07-04T23:15:29.056Z,62.01
2018-07-04T23:18:08.861Z,62.12
2018-07-04T23:20:48.735Z,61.98
2018-07-04T23:23:28.820Z,61.40
2018-07-04T23:26:09.143Z,61.58
2018-07-04T23:28:48.871Z,61.63
2018-07-04T23:31:29.117Z,61.96
2018-07-04T23:34:09.930Z,62.10
2018-07-04T23:36:50.176Z,63.07
2018-07-04T23:39:30.754Z,62.80
2018-07-04T23:42:10.530Z,63.11
2018-07-04T23:44:50.953Z,63.38
2018-07-04T23:47:31.144Z,63.47
2018-07-04T23:50:11.144Z,63.94
2018-07-04T23:52:50.744Z,63.53
2018-07-04T23:55:31.359Z,62.60
2018-07-04T23:58:11.663Z,63.05
